Terminal Aerodrome Forecast
Issued by NWS Twin Cities, MN

Home | Current Version | Previous Version | Graphics & Text | Print | Product List | Glossary On
Versions: 1 2 3 4 5 6 7 8 9 10 11 12 13 14 15 16 17 18 19 20 21 22 23 24 25 26 27 28 29
000
FTUS43 KMPX 231120
TAFMSP
TAF
KMSP 231120Z 2312/2418 09005KT P6SM SCT250
     FM231500 11011KT P6SM VCSH SCT070 BKN110
      TEMPO 2317/2320 3SM -TSRA BKN040CB
     FM232000 14012G19KT P6SM SCT040 BKN090
     FM240200 17011KT P6SM VCSH BKN060
      TEMPO 2402/2404 2SM TSRA BKN020CB
     FM240500 23008KT P6SM SCT060 BKN100
     FM240800 28005KT P6SM SCT250=

USA.gov is the U.S. government's official web portal to all federal, state and local government web resources and services.